sensor_id;sensor_type;location;lat;lon;timestamp;temperature;humidity
3504;DHT22;1766;53.490;10.174;2022-08-11T00:02:02;24.80;42.80
3504;DHT22;1766;53.490;10.174;2022-08-11T00:04:05;24.80;42.80
3504;DHT22;1766;53.490;10.174;2022-08-11T00:06:08;24.80;42.80
3504;DHT22;1766;53.490;10.174;2022-08-11T00:08:19;24.90;43.00
3504;DHT22;1766;53.490;10.174;2022-08-11T00:10:24;24.60;42.70
3504;DHT22;1766;53.490;10.174;2022-08-11T00:12:27;24.80;43.00
3504;DHT22;1766;53.490;10.174;2022-08-11T00:14:32;24.70;43.10
3504;DHT22;1766;53.490;10.174;2022-08-11T00:16:34;24.60;43.00
3504;DHT22;1766;53.490;10.174;2022-08-11T00:18:38;24.60;43.00
3504;DHT22;1766;53.490;10.174;2022-08-11T00:20:42;24.50;43.10
3504;DHT22;1766;53.490;10.174;2022-08-11T00:22:46;24.40;43.00
3504;DHT22;1766;53.490;10.174;2022-08-11T00:24:49;24.40;43.10
3504;DHT22;1766;53.490;10.174;2022-08-11T00:26:53;24.40;43.10
3504;DHT22;1766;53.490;10.174;2022-08-11T00:28:55;24.30;43.20
3504;DHT22;1766;53.490;10.174;2022-08-11T00:31:00;24.30;43.30
3504;DHT22;1766;53.490;10.174;2022-08-11T00:33:05;24.20;43.30
3504;DHT22;1766;53.490;10.174;2022-08-11T00:35:10;24.10;43.20
3504;DHT22;1766;53.490;10.174;2022-08-11T00:37:18;24.00;43.30
3504;DHT22;1766;53.490;10.174;2022-08-11T00:39:23;23.90;43.30
3504;DHT22;1766;53.490;10.174;2022-08-11T00:41:31;23.90;43.40
3504;DHT22;1766;53.490;10.174;2022-08-11T00:43:46;23.80;43.50
3504;DHT22;1766;53.490;10.174;2022-08-11T00:46:08;23.80;43.60
3504;DHT22;1766;53.490;10.174;2022-08-11T00:48:22;23.70;43.60
3504;DHT22;1766;53.490;10.174;2022-08-11T00:50:36;23.60;43.70
3504;DHT22;1766;53.490;10.174;2022-08-11T00:52:55;23.60;43.80
3504;DHT22;1766;53.490;10.174;2022-08-11T00:58:14;23.50;44.00
3504;DHT22;1766;53.490;10.174;2022-08-11T01:00:48;23.50;44.00
3504;DHT22;1766;53.490;10.174;2022-08-11T01:03:17;23.30;43.90
3504;DHT22;1766;53.490;10.174;2022-08-11T01:05:41;23.40;44.20
3504;DHT22;1766;53.490;10.174;2022-08-11T01:08:20;23.30;44.20
3504;DHT22;1766;53.490;10.174;2022-08-11T01:10:51;23.30;44.40
3504;DHT22;1766;53.490;10.174;2022-08-11T01:13:10;23.20;44.40
3504;DHT22;1766;53.490;10.174;2022-08-11T01:15:37;23.10;44.40
3504;DHT22;1766;53.490;10.174;2022-08-11T01:18:20;23.10;44.70
3504;DHT22;1766;53.490;10.174;2022-08-11T01:20:58;23.10;44.70
3504;DHT22;1766;53.490;10.174;2022-08-11T01:23:40;23.10;44.80
3504;DHT22;1766;53.490;10.174;2022-08-11T01:29:12;23.00;45.00
3504;DHT22;1766;53.490;10.174;2022-08-11T01:31:54;22.90;45.00
3504;DHT22;1766;53.490;10.174;2022-08-11T01:34:21;22.90;45.20
3504;DHT22;1766;53.490;10.174;2022-08-11T01:37:05;22.90;45.30
3504;DHT22;1766;53.490;10.174;2022-08-11T01:39:42;23.00;45.00
3504;DHT22;1766;53.490;10.174;2022-08-11T01:42:10;22.90;45.50
3504;DHT22;1766;53.490;10.174;2022-08-11T01:45:04;22.80;45.50
3504;DHT22;1766;53.490;10.174;2022-08-11T01:47:16;22.70;45.60
3504;DHT22;1766;53.490;10.174;2022-08-11T01:49:44;22.70;45.80
3504;DHT22;1766;53.490;10.174;2022-08-11T01:52:06;22.70;45.90
3504;DHT22;1766;53.490;10.174;2022-08-11T01:54:25;22.70;46.10
3504;DHT22;1766;53.490;10.174;2022-08-11T01:56:37;22.70;46.10
3504;DHT22;1766;53.490;10.174;2022-08-11T01:58:47;22.60;46.20
3504;DHT22;1766;53.490;10.174;2022-08-11T02:00:57;22.80;46.40
3504;DHT22;1766;53.490;10.174;2022-08-11T02:03:16;22.60;46.30
3504;DHT22;1766;53.490;10.174;2022-08-11T02:05:28;22.60;46.30
3504;DHT22;1766;53.490;10.174;2022-08-11T02:07:58;22.60;46.50
3504;DHT22;1766;53.490;10.174;2022-08-11T02:10:13;22.50;46.50
3504;DHT22;1766;53.490;10.174;2022-08-11T02:12:43;22.50;46.60
3504;DHT22;1766;53.490;10.174;2022-08-11T02:14:58;22.50;46.60
3504;DHT22;1766;53.490;10.174;2022-08-11T02:17:14;22.30;46.60
3504;DHT22;1766;53.490;10.174;2022-08-11T02:19:24;22.30;46.70
3504;DHT22;1766;53.490;10.174;2022-08-11T02:21:49;22.40;46.80
3504;DHT22;1766;53.490;10.174;2022-08-11T02:24:16;22.30;46.80
3504;DHT22;1766;53.490;10.174;2022-08-11T02:26:40;22.30;46.80
3504;DHT22;1766;53.490;10.174;2022-08-11T02:29:00;22.20;46.70
3504;DHT22;1766;53.490;10.174;2022-08-11T02:31:11;22.20;47.00
3504;DHT22;1766;53.490;10.174;2022-08-11T02:33:33;22.30;47.10
3504;DHT22;1766;53.490;10.174;2022-08-11T02:35:42;22.20;47.00
3504;DHT22;1766;53.490;10.174;2022-08-11T02:37:52;22.30;47.20
3504;DHT22;1766;53.490;10.174;2022-08-11T02:40:14;22.20;47.20
3504;DHT22;1766;53.490;10.174;2022-08-11T02:42:27;22.10;47.30
3504;DHT22;1766;53.490;10.174;2022-08-11T02:44:35;22.10;47.30
3504;DHT22;1766;53.490;10.174;2022-08-11T02:46:49;22.00;47.30
3504;DHT22;1766;53.490;10.174;2022-08-11T02:48:59;22.00;47.50
3504;DHT22;1766;53.490;10.174;2022-08-11T02:51:38;21.90;47.50
3504;DHT22;1766;53.490;10.174;2022-08-11T02:53:48;22.00;47.60
3504;DHT22;1766;53.490;10.174;2022-08-11T02:56:01;22.00;47.60
3504;DHT22;1766;53.490;10.174;2022-08-11T02:58:12;21.90;47.60
3504;DHT22;1766;53.490;10.174;2022-08-11T03:00:16;21.90;47.60
3504;DHT22;1766;53.490;10.174;2022-08-11T03:02:33;21.90;47.40
3504;DHT22;1766;53.490;10.174;2022-08-11T03:04:58;21.90;47.80
3504;DHT22;1766;53.490;10.174;2022-08-11T03:07:18;21.80;47.70
3504;DHT22;1766;53.490;10.174;2022-08-11T03:09:38;21.80;47.80
3504;DHT22;1766;53.490;10.174;2022-08-11T03:11:51;21.70;47.80
3504;DHT22;1766;53.490;10.174;2022-08-11T03:14:15;21.80;47.90
3504;DHT22;1766;53.490;10.174;2022-08-11T03:16:40;21.60;47.80
3504;DHT22;1766;53.490;10.174;2022-08-11T03:18:53;21.70;48.00
3504;DHT22;1766;53.490;10.174;2022-08-11T03:21:04;21.70;48.10
3504;DHT22;1766;53.490;10.174;2022-08-11T03:23:17;21.70;48.20
3504;DHT22;1766;53.490;10.174;2022-08-11T03:25:31;21.60;48.20
3504;DHT22;1766;53.490;10.174;2022-08-11T03:27:47;21.70;48.30
3504;DHT22;1766;53.490;10.174;2022-08-11T03:30:03;21.60;48.30
3504;DHT22;1766;53.490;10.174;2022-08-11T03:32:18;21.60;48.40
3504;DHT22;1766;53.490;10.174;2022-08-11T03:34:25;21.80;48.50
3504;DHT22;1766;53.490;10.174;2022-08-11T03:39:44;21.60;48.60
3504;DHT22;1766;53.490;10.174;2022-08-11T03:42:00;21.70;48.40
3504;DHT22;1766;53.490;10.174;2022-08-11T03:44:18;21.60;48.40
3504;DHT22;1766;53.490;10.174;2022-08-11T03:46:35;21.60;48.60
3504;DHT22;1766;53.490;10.174;2022-08-11T03:48:59;21.60;49.10
3504;DHT22;1766;53.490;10.174;2022-08-11T03:51:17;21.60;48.40
3504;DHT22;1766;53.490;10.174;2022-08-11T03:53:37;21.60;48.60
3504;DHT22;1766;53.490;10.174;2022-08-11T03:56:07;21.50;48.50
3504;DHT22;1766;53.490;10.174;2022-08-11T03:58:35;21.50;48.60
3504;DHT22;1766;53.490;10.174;2022-08-11T04:01:07;21.50;48.50
3504;DHT22;1766;53.490;10.174;2022-08-11T04:03:56;21.50;48.60
3504;DHT22;1766;53.490;10.174;2022-08-11T04:06:26;21.50;48.60
3504;DHT22;1766;53.490;10.174;2022-08-11T04:09:18;21.50;48.60
3504;DHT22;1766;53.490;10.174;2022-08-11T04:11:54;21.40;48.50
3504;DHT22;1766;53.490;10.174;2022-08-11T04:14:28;21.50;48.60
3504;DHT22;1766;53.490;10.174;2022-08-11T04:17:17;21.50;48.60
3504;DHT22;1766;53.490;10.174;2022-08-11T04:19:50;21.40;48.60
3504;DHT22;1766;53.490;10.174;2022-08-11T04:22:21;21.40;48.80
3504;DHT22;1766;53.490;10.174;2022-08-11T04:24:52;21.30;48.80
3504;DHT22;1766;53.490;10.174;2022-08-11T04:27:19;21.40;49.00
3504;DHT22;1766;53.490;10.174;2022-08-11T04:29:42;21.30;49.00
3504;DHT22;1766;53.490;10.174;2022-08-11T04:32:08;21.30;49.10
3504;DHT22;1766;53.490;10.174;2022-08-11T04:34:36;21.30;49.20
3504;DHT22;1766;53.490;10.174;2022-08-11T04:37:07;21.40;49.30
3504;DHT22;1766;53.490;10.174;2022-08-11T04:39:46;21.40;49.20
3504;DHT22;1766;53.490;10.174;2022-08-11T04:42:29;21.40;49.20
3504;DHT22;1766;53.490;10.174;2022-08-11T04:45:33;21.40;49.30
3504;DHT22;1766;53.490;10.174;2022-08-11T04:50:53;21.40;49.10
3504;DHT22;1766;53.490;10.174;2022-08-11T04:53:28;21.50;49.20
3504;DHT22;1766;53.490;10.174;2022-08-11T04:56:07;21.40;49.10
3504;DHT22;1766;53.490;10.174;2022-08-11T04:58:40;21.50;49.40
3504;DHT22;1766;53.490;10.174;2022-08-11T05:01:17;21.50;49.40
3504;DHT22;1766;53.490;10.174;2022-08-11T05:03:51;21.50;49.40
3504;DHT22;1766;53.490;10.174;2022-08-11T05:06:49;21.60;49.60
3504;DHT22;1766;53.490;10.174;2022-08-11T05:09:18;21.70;49.30
3504;DHT22;1766;53.490;10.174;2022-08-11T05:11:34;21.60;49.60
3504;DHT22;1766;53.490;10.174;2022-08-11T05:13:45;21.70;49.90
3504;DHT22;1766;53.490;10.174;2022-08-11T05:16:08;21.70;49.90
3504;DHT22;1766;53.490;10.174;2022-08-11T05:18:28;21.70;50.00
3504;DHT22;1766;53.490;10.174;2022-08-11T05:20:50;21.80;50.10
3504;DHT22;1766;53.490;10.174;2022-08-11T05:23:09;21.80;50.20
3504;DHT22;1766;53.490;10.174;2022-08-11T05:25:28;21.90;50.20
3504;DHT22;1766;53.490;10.174;2022-08-11T05:27:50;21.90;50.30
3504;DHT22;1766;53.490;10.174;2022-08-11T05:30:10;21.90;50.30
3504;DHT22;1766;53.490;10.174;2022-08-11T05:32:34;22.10;50.60
3504;DHT22;1766;53.490;10.174;2022-08-11T05:34:52;22.10;50.60
3504;DHT22;1766;53.490;10.174;2022-08-11T05:37:01;22.20;50.60
3504;DHT22;1766;53.490;10.174;2022-08-11T05:39:12;22.20;50.70
3504;DHT22;1766;53.490;10.174;2022-08-11T05:41:30;22.30;50.80
3504;DHT22;1766;53.490;10.174;2022-08-11T05:43:47;22.40;50.80
3504;DHT22;1766;53.490;10.174;2022-08-11T05:46:05;22.40;50.90
3504;DHT22;1766;53.490;10.174;2022-08-11T05:48:21;22.50;51.00
3504;DHT22;1766;53.490;10.174;2022-08-11T05:50:50;22.60;51.00
3504;DHT22;1766;53.490;10.174;2022-08-11T05:53:11;22.70;51.20
3504;DHT22;1766;53.490;10.174;2022-08-11T05:55:28;22.80;51.20
3504;DHT22;1766;53.490;10.174;2022-08-11T05:57:44;22.90;51.30
3504;DHT22;1766;53.490;10.174;2022-08-11T05:59:46;23.10;51.30
3504;DHT22;1766;53.490;10.174;2022-08-11T06:01:49;23.00;51.40
3504;DHT22;1766;53.490;10.174;2022-08-11T06:03:53;23.20;51.60
3504;DHT22;1766;53.490;10.174;2022-08-11T06:06:11;23.20;51.60
3504;DHT22;1766;53.490;10.174;2022-08-11T06:08:14;23.40;51.60
3504;DHT22;1766;53.490;10.174;2022-08-11T06:10:28;23.40;51.60
3504;DHT22;1766;53.490;10.174;2022-08-11T06:12:34;23.40;51.80
3504;DHT22;1766;53.490;10.174;2022-08-11T06:14:42;23.60;51.80
3504;DHT22;1766;53.490;10.174;2022-08-11T06:16:48;23.60;51.70
3504;DHT22;1766;53.490;10.174;2022-08-11T06:18:50;23.80;51.70
3504;DHT22;1766;53.490;10.174;2022-08-11T06:20:54;23.90;51.60
3504;DHT22;1766;53.490;10.174;2022-08-11T06:23:00;24.00;51.70
3504;DHT22;1766;53.490;10.174;2022-08-11T06:25:07;24.00;51.70
3504;DHT22;1766;53.490;10.174;2022-08-11T06:27:18;24.10;51.60
3504;DHT22;1766;53.490;10.174;2022-08-11T06:29:23;24.20;51.60
3504;DHT22;1766;53.490;10.174;2022-08-11T06:31:25;24.40;51.70
3504;DHT22;1766;53.490;10.174;2022-08-11T06:33:32;24.50;51.60
3504;DHT22;1766;53.490;10.174;2022-08-11T06:35:45;24.50;51.50
3504;DHT22;1766;53.490;10.174;2022-08-11T06:38:01;24.50;51.20
3504;DHT22;1766;53.490;10.174;2022-08-11T06:40:10;24.70;50.90
3504;DHT22;1766;53.490;10.174;2022-08-11T06:44:53;24.90;50.30
3504;DHT22;1766;53.490;10.174;2022-08-11T06:47:06;25.10;49.80
3504;DHT22;1766;53.490;10.174;2022-08-11T06:49:12;25.20;49.50
3504;DHT22;1766;53.490;10.174;2022-08-11T06:51:29;25.30;49.20
3504;DHT22;1766;53.490;10.174;2022-08-11T06:53:32;25.40;48.90
3504;DHT22;1766;53.490;10.174;2022-08-11T06:55:40;25.50;48.60
3504;DHT22;1766;53.490;10.174;2022-08-11T06:57:57;25.50;48.10
3504;DHT22;1766;53.490;10.174;2022-08-11T07:00:15;25.80;47.80
3504;DHT22;1766;53.490;10.174;2022-08-11T07:02:35;25.70;47.20
3504;DHT22;1766;53.490;10.174;2022-08-11T07:04:42;25.80;46.80
3504;DHT22;1766;53.490;10.174;2022-08-11T07:06:59;25.90;46.30
3504;DHT22;1766;53.490;10.174;2022-08-11T07:09:32;26.00;46.00
3504;DHT22;1766;53.490;10.174;2022-08-11T07:12:12;26.20;45.50
3504;DHT22;1766;53.490;10.174;2022-08-11T07:14:48;26.30;45.10
3504;DHT22;1766;53.490;10.174;2022-08-11T07:17:08;26.50;44.70
3504;DHT22;1766;53.490;10.174;2022-08-11T07:19:19;26.50;44.20
3504;DHT22;1766;53.490;10.174;2022-08-11T07:21:42;26.60;44.10
3504;DHT22;1766;53.490;10.174;2022-08-11T07:24:05;26.70;43.80
3504;DHT22;1766;53.490;10.174;2022-08-11T07:26:25;26.80;43.50
3504;DHT22;1766;53.490;10.174;2022-08-11T07:28:46;26.80;43.10
3504;DHT22;1766;53.490;10.174;2022-08-11T07:31:05;26.90;42.90
3504;DHT22;1766;53.490;10.174;2022-08-11T07:33:09;27.10;42.80
3504;DHT22;1766;53.490;10.174;2022-08-11T07:35:17;27.00;42.50
3504;DHT22;1766;53.490;10.174;2022-08-11T07:37:23;27.10;42.50
3504;DHT22;1766;53.490;10.174;2022-08-11T07:39:28;27.20;42.40
3504;DHT22;1766;53.490;10.174;2022-08-11T07:41:33;27.30;42.00
3504;DHT22;1766;53.490;10.174;2022-08-11T07:43:36;27.30;41.30
3504;DHT22;1766;53.490;10.174;2022-08-11T07:45:41;27.40;41.00
3504;DHT22;1766;53.490;10.174;2022-08-11T07:47:57;27.40;40.60
3504;DHT22;1766;53.490;10.174;2022-08-11T07:50:15;27.50;40.40
3504;DHT22;1766;53.490;10.174;2022-08-11T07:52:33;27.60;40.30
3504;DHT22;1766;53.490;10.174;2022-08-11T07:54:37;27.70;40.30
3504;DHT22;1766;53.490;10.174;2022-08-11T07:56:39;27.80;40.30
3504;DHT22;1766;53.490;10.174;2022-08-11T07:58:42;27.80;40.70
3504;DHT22;1766;53.490;10.174;2022-08-11T08:00:59;27.90;39.90
3504;DHT22;1766;53.490;10.174;2022-08-11T08:03:16;28.00;39.70
3504;DHT22;1766;53.490;10.174;2022-08-11T08:05:32;28.10;39.40
3504;DHT22;1766;53.490;10.174;2022-08-11T08:07:48;28.10;39.20
3504;DHT22;1766;53.490;10.174;2022-08-11T08:10:05;28.20;38.90
3504;DHT22;1766;53.490;10.174;2022-08-11T08:12:23;28.30;38.90
3504;DHT22;1766;53.490;10.174;2022-08-11T08:14:40;28.40;38.80
3504;DHT22;1766;53.490;10.174;2022-08-11T08:16:57;28.40;38.70
3504;DHT22;1766;53.490;10.174;2022-08-11T08:19:15;28.30;38.80
3504;DHT22;1766;53.490;10.174;2022-08-11T08:21:20;28.50;38.80
3504;DHT22;1766;53.490;10.174;2022-08-11T08:23:25;28.60;38.70
3504;DHT22;1766;53.490;10.174;2022-08-11T08:25:35;28.60;38.60
3504;DHT22;1766;53.490;10.174;2022-08-11T08:27:40;28.70;38.50
3504;DHT22;1766;53.490;10.174;2022-08-11T08:29:44;28.80;38.30
3504;DHT22;1766;53.490;10.174;2022-08-11T08:32:02;28.80;38.30
3504;DHT22;1766;53.490;10.174;2022-08-11T08:34:04;28.90;38.20
3504;DHT22;1766;53.490;10.174;2022-08-11T08:36:07;29.00;38.10
3504;DHT22;1766;53.490;10.174;2022-08-11T08:38:15;28.90;38.00
3504;DHT22;1766;53.490;10.174;2022-08-11T08:40:17;29.10;37.90
3504;DHT22;1766;53.490;10.174;2022-08-11T08:42:24;29.20;37.90
3504;DHT22;1766;53.490;10.174;2022-08-11T08:44:28;29.30;37.80
3504;DHT22;1766;53.490;10.174;2022-08-11T08:46:43;29.40;37.50
3504;DHT22;1766;53.490;10.174;2022-08-11T08:48:50;29.50;37.40
3504;DHT22;1766;53.490;10.174;2022-08-11T08:50:56;29.60;37.20
3504;DHT22;1766;53.490;10.174;2022-08-11T08:53:19;29.60;37.00
3504;DHT22;1766;53.490;10.174;2022-08-11T08:55:22;29.70;36.80
3504;DHT22;1766;53.490;10.174;2022-08-11T08:57:27;29.80;36.60
3504;DHT22;1766;53.490;10.174;2022-08-11T08:59:30;29.90;36.50
3504;DHT22;1766;53.490;10.174;2022-08-11T09:01:37;29.90;36.40
3504;DHT22;1766;53.490;10.174;2022-08-11T09:03:43;30.00;36.20
3504;DHT22;1766;53.490;10.174;2022-08-11T09:05:47;30.10;36.00
3504;DHT22;1766;53.490;10.174;2022-08-11T09:07:50;30.10;36.00
3504;DHT22;1766;53.490;10.174;2022-08-11T09:09:58;30.20;35.90
3504;DHT22;1766;53.490;10.174;2022-08-11T09:12:01;30.30;35.70
3504;DHT22;1766;53.490;10.174;2022-08-11T09:14:05;30.30;35.40
3504;DHT22;1766;53.490;10.174;2022-08-11T09:16:09;30.40;35.20
3504;DHT22;1766;53.490;10.174;2022-08-11T09:18:12;30.50;35.00
3504;DHT22;1766;53.490;10.174;2022-08-11T09:20:18;30.60;34.90
3504;DHT22;1766;53.490;10.174;2022-08-11T09:22:24;30.60;34.60
3504;DHT22;1766;53.490;10.174;2022-08-11T09:24:41;30.70;34.40
3504;DHT22;1766;53.490;10.174;2022-08-11T09:26:57;30.70;34.00
3504;DHT22;1766;53.490;10.174;2022-08-11T09:29:00;30.80;33.80
3504;DHT22;1766;53.490;10.174;2022-08-11T09:31:05;30.80;33.70
3504;DHT22;1766;53.490;10.174;2022-08-11T09:33:09;30.90;33.60
3504;DHT22;1766;53.490;10.174;2022-08-11T09:35:13;30.90;33.50
3504;DHT22;1766;53.490;10.174;2022-08-11T09:37:17;31.00;33.40
3504;DHT22;1766;53.490;10.174;2022-08-11T09:39:40;31.10;33.40
3504;DHT22;1766;53.490;10.174;2022-08-11T09:41:57;31.20;33.20
3504;DHT22;1766;53.490;10.174;2022-08-11T09:44:00;31.30;33.10
3504;DHT22;1766;53.490;10.174;2022-08-11T09:46:16;31.30;32.80
3504;DHT22;1766;53.490;10.174;2022-08-11T09:48:24;31.40;32.70
3504;DHT22;1766;53.490;10.174;2022-08-11T09:50:28;31.50;32.40
3504;DHT22;1766;53.490;10.174;2022-08-11T09:52:34;31.60;32.10
3504;DHT22;1766;53.490;10.174;2022-08-11T09:54:40;31.70;31.80
3504;DHT22;1766;53.490;10.174;2022-08-11T09:56:43;31.70;31.60
3504;DHT22;1766;53.490;10.174;2022-08-11T09:59:00;31.70;31.60
3504;DHT22;1766;53.490;10.174;2022-08-11T10:01:04;31.80;31.00
3504;DHT22;1766;53.490;10.174;2022-08-11T10:03:22;31.90;30.60
3504;DHT22;1766;53.490;10.174;2022-08-11T10:05:26;32.00;30.60
3504;DHT22;1766;53.490;10.174;2022-08-11T10:07:45;32.00;30.30
3504;DHT22;1766;53.490;10.174;2022-08-11T10:09:54;32.10;30.00
3504;DHT22;1766;53.490;10.174;2022-08-11T10:11:57;32.10;29.90
3504;DHT22;1766;53.490;10.174;2022-08-11T10:14:02;32.20;29.50
3504;DHT22;1766;53.490;10.174;2022-08-11T10:16:23;32.20;29.40
3504;DHT22;1766;53.490;10.174;2022-08-11T10:18:32;32.30;29.40
3504;DHT22;1766;53.490;10.174;2022-08-11T10:20:51;32.30;29.20
3504;DHT22;1766;53.490;10.174;2022-08-11T10:22:54;32.40;29.00
3504;DHT22;1766;53.490;10.174;2022-08-11T10:25:12;32.40;29.00
3504;DHT22;1766;53.490;10.174;2022-08-11T10:27:29;32.60;29.10
3504;DHT22;1766;53.490;10.174;2022-08-11T10:29:37;32.60;29.00
3504;DHT22;1766;53.490;10.174;2022-08-11T10:31:55;32.70;28.90
3504;DHT22;1766;53.490;10.174;2022-08-11T10:34:11;32.70;28.60
3504;DHT22;1766;53.490;10.174;2022-08-11T10:36:17;32.80;28.50
3504;DHT22;1766;53.490;10.174;2022-08-11T10:38:19;32.80;28.50
3504;DHT22;1766;53.490;10.174;2022-08-11T10:40:23;32.90;28.20
3504;DHT22;1766;53.490;10.174;2022-08-11T10:42:25;33.00;28.00
3504;DHT22;1766;53.490;10.174;2022-08-11T10:44:45;33.10;28.00
3504;DHT22;1766;53.490;10.174;2022-08-11T10:46:49;33.10;28.00
3504;DHT22;1766;53.490;10.174;2022-08-11T10:49:06;33.20;27.80
3504;DHT22;1766;53.490;10.174;2022-08-11T10:51:08;33.30;27.70
3504;DHT22;1766;53.490;10.174;2022-08-11T10:53:13;33.20;27.50
3504;DHT22;1766;53.490;10.174;2022-08-11T10:55:31;33.30;27.40
3504;DHT22;1766;53.490;10.174;2022-08-11T10:57:47;33.50;27.10
3504;DHT22;1766;53.490;10.174;2022-08-11T11:00:04;33.50;27.00
3504;DHT22;1766;53.490;10.174;2022-08-11T11:02:08;33.50;27.00
3504;DHT22;1766;53.490;10.174;2022-08-11T11:04:16;33.60;26.90
3504;DHT22;1766;53.490;10.174;2022-08-11T11:06:24;33.60;26.60
3504;DHT22;1766;53.490;10.174;2022-08-11T11:08:29;33.70;26.50
3504;DHT22;1766;53.490;10.174;2022-08-11T11:10:47;33.80;26.60
3504;DHT22;1766;53.490;10.174;2022-08-11T11:12:53;33.80;26.40
3504;DHT22;1766;53.490;10.174;2022-08-11T11:15:12;33.80;26.40
3504;DHT22;1766;53.490;10.174;2022-08-11T11:17:33;33.90;26.40
3504;DHT22;1766;53.490;10.174;2022-08-11T11:19:57;34.00;26.50
3504;DHT22;1766;53.490;10.174;2022-08-11T11:22:00;34.10;26.20
3504;DHT22;1766;53.490;10.174;2022-08-11T11:24:32;34.10;26.10
3504;DHT22;1766;53.490;10.174;2022-08-11T11:26:48;34.10;26.30
3504;DHT22;1766;53.490;10.174;2022-08-11T11:29:10;34.20;26.20
3504;DHT22;1766;53.490;10.174;2022-08-11T11:31:33;34.20;26.60
3504;DHT22;1766;53.490;10.174;2022-08-11T11:33:59;34.40;26.50
3504;DHT22;1766;53.490;10.174;2022-08-11T11:36:11;34.40;26.60
3504;DHT22;1766;53.490;10.174;2022-08-11T11:38:17;34.40;26.60
3504;DHT22;1766;53.490;10.174;2022-08-11T11:40:21;34.60;26.40
3504;DHT22;1766;53.490;10.174;2022-08-11T11:42:25;34.70;26.30
3504;DHT22;1766;53.490;10.174;2022-08-11T11:44:29;34.70;25.90
3504;DHT22;1766;53.490;10.174;2022-08-11T11:46:32;34.80;25.50
3504;DHT22;1766;53.490;10.174;2022-08-11T11:48:36;34.90;25.50
3504;DHT22;1766;53.490;10.174;2022-08-11T11:50:39;35.00;25.40
3504;DHT22;1766;53.490;10.174;2022-08-11T11:52:41;35.10;25.50
3504;DHT22;1766;53.490;10.174;2022-08-11T11:54:45;35.20;25.60
3504;DHT22;1766;53.490;10.174;2022-08-11T11:56:50;35.40;25.60
3504;DHT22;1766;53.490;10.174;2022-08-11T11:58:54;35.40;25.50
3504;DHT22;1766;53.490;10.174;2022-08-11T12:01:12;35.50;25.00
3504;DHT22;1766;53.490;10.174;2022-08-11T12:03:17;35.60;24.90
3504;DHT22;1766;53.490;10.174;2022-08-11T12:05:20;35.80;24.90
3504;DHT22;1766;53.490;10.174;2022-08-11T12:07:22;36.00;24.80
3504;DHT22;1766;53.490;10.174;2022-08-11T12:09:39;36.20;24.80
3504;DHT22;1766;53.490;10.174;2022-08-11T12:11:41;36.60;24.70
3504;DHT22;1766;53.490;10.174;2022-08-11T12:14:01;37.60;24.10
3504;DHT22;1766;53.490;10.174;2022-08-11T12:16:04;39.10;23.00
3504;DHT22;1766;53.490;10.174;2022-08-11T12:18:07;40.20;22.30
3504;DHT22;1766;53.490;10.174;2022-08-11T12:20:11;41.20;21.90
3504;DHT22;1766;53.490;10.174;2022-08-11T12:22:14;42.20;21.40
3504;DHT22;1766;53.490;10.174;2022-08-11T12:24:31;43.20;20.70
3504;DHT22;1766;53.490;10.174;2022-08-11T12:26:50;44.10;20.10
3504;DHT22;1766;53.490;10.174;2022-08-11T12:29:09;44.80;19.60
3504;DHT22;1766;53.490;10.174;2022-08-11T12:31:12;45.20;19.50
3504;DHT22;1766;53.490;10.174;2022-08-11T12:33:14;45.60;19.10
3504;DHT22;1766;53.490;10.174;2022-08-11T12:35:16;46.00;18.80
3504;DHT22;1766;53.490;10.174;2022-08-11T12:37:22;46.10;18.50
3504;DHT22;1766;53.490;10.174;2022-08-11T12:39:33;46.20;18.30
3504;DHT22;1766;53.490;10.174;2022-08-11T12:41:51;46.40;18.00
3504;DHT22;1766;53.490;10.174;2022-08-11T12:44:09;46.40;17.60
3504;DHT22;1766;53.490;10.174;2022-08-11T12:46:30;46.40;17.70
3504;DHT22;1766;53.490;10.174;2022-08-11T12:48:38;46.50;17.60
3504;DHT22;1766;53.490;10.174;2022-08-11T12:51:01;46.50;17.40
3504;DHT22;1766;53.490;10.174;2022-08-11T12:53:23;46.40;17.20
3504;DHT22;1766;53.490;10.174;2022-08-11T12:55:27;46.20;17.60
3504;DHT22;1766;53.490;10.174;2022-08-11T12:57:44;46.30;17.60
3504;DHT22;1766;53.490;10.174;2022-08-11T13:00:04;46.40;18.00
3504;DHT22;1766;53.490;10.174;2022-08-11T13:02:22;46.70;18.10
3504;DHT22;1766;53.490;10.174;2022-08-11T13:04:41;46.90;18.00
3504;DHT22;1766;53.490;10.174;2022-08-11T13:06:57;47.10;17.80
3504;DHT22;1766;53.490;10.174;2022-08-11T13:08:59;47.20;17.30
3504;DHT22;1766;53.490;10.174;2022-08-11T13:11:02;47.30;17.40
3504;DHT22;1766;53.490;10.174;2022-08-11T13:13:22;47.40;17.20
3504;DHT22;1766;53.490;10.174;2022-08-11T13:15:25;47.50;17.20
3504;DHT22;1766;53.490;10.174;2022-08-11T13:17:28;47.70;17.20
3504;DHT22;1766;53.490;10.174;2022-08-11T13:19:34;47.90;17.10
3504;DHT22;1766;53.490;10.174;2022-08-11T13:21:36;48.00;16.60
3504;DHT22;1766;53.490;10.174;2022-08-11T13:23:39;48.20;16.30
3504;DHT22;1766;53.490;10.174;2022-08-11T13:25:42;48.40;16.60
3504;DHT22;1766;53.490;10.174;2022-08-11T13:27:46;48.50;16.90
3504;DHT22;1766;53.490;10.174;2022-08-11T13:29:49;48.60;16.30
3504;DHT22;1766;53.490;10.174;2022-08-11T13:32:14;48.70;15.80
3504;DHT22;1766;53.490;10.174;2022-08-11T13:34:16;48.90;15.70
3504;DHT22;1766;53.490;10.174;2022-08-11T13:36:21;48.90;15.60
3504;DHT22;1766;53.490;10.174;2022-08-11T13:38:27;49.20;15.60
3504;DHT22;1766;53.490;10.174;2022-08-11T13:40:30;49.30;15.50
3504;DHT22;1766;53.490;10.174;2022-08-11T13:42:33;49.30;15.40
3504;DHT22;1766;53.490;10.174;2022-08-11T13:44:36;49.40;15.40
3504;DHT22;1766;53.490;10.174;2022-08-11T13:46:39;49.50;15.00
3504;DHT22;1766;53.490;10.174;2022-08-11T13:48:44;49.70;15.10
3504;DHT22;1766;53.490;10.174;2022-08-11T13:50:46;49.90;15.30
3504;DHT22;1766;53.490;10.174;2022-08-11T13:53:02;50.00;15.30
3504;DHT22;1766;53.490;10.174;2022-08-11T13:55:05;50.10;15.30
3504;DHT22;1766;53.490;10.174;2022-08-11T13:57:11;50.20;15.10
3504;DHT22;1766;53.490;10.174;2022-08-11T13:59:18;50.10;15.00
3504;DHT22;1766;53.490;10.174;2022-08-11T14:01:25;50.20;14.70
3504;DHT22;1766;53.490;10.174;2022-08-11T14:03:31;50.30;14.90
3504;DHT22;1766;53.490;10.174;2022-08-11T14:05:38;50.40;15.00
3504;DHT22;1766;53.490;10.174;2022-08-11T14:07:47;50.40;14.50
3504;DHT22;1766;53.490;10.174;2022-08-11T14:09:56;50.60;14.50
3504;DHT22;1766;53.490;10.174;2022-08-11T14:12:01;50.90;14.30
3504;DHT22;1766;53.490;10.174;2022-08-11T14:14:21;50.90;14.20
3504;DHT22;1766;53.490;10.174;2022-08-11T14:16:28;51.10;14.20
3504;DHT22;1766;53.490;10.174;2022-08-11T14:18:31;51.30;14.20
3504;DHT22;1766;53.490;10.174;2022-08-11T14:20:39;51.50;13.90
3504;DHT22;1766;53.490;10.174;2022-08-11T14:22:57;51.70;13.70
3504;DHT22;1766;53.490;10.174;2022-08-11T14:24:59;51.80;14.00
3504;DHT22;1766;53.490;10.174;2022-08-11T14:27:02;51.80;13.80
3504;DHT22;1766;53.490;10.174;2022-08-11T14:29:07;51.60;13.60
3504;DHT22;1766;53.490;10.174;2022-08-11T14:31:12;51.40;13.70
3504;DHT22;1766;53.490;10.174;2022-08-11T14:33:15;51.40;13.80
3504;DHT22;1766;53.490;10.174;2022-08-11T14:35:17;51.40;13.60